Quantico MCAF /Turner field
KNYG : rendu visible

Aérodrome :











RETROUVEZ-NOUS SUR...

 
LOGIN :

S'inscrire | Disclaimer

   EN    FR    IT 

 









Légende :    VFR   VFR Marginal   IFR   IFR Intensif   IFR Très Intensif
Visi : 
Plafond : 
>= 8 km
>= 3000ft
5 à 8 km
1000 à 3000 ft
1500m à 5 km
500 à 1000 ft
800 à 1500m
200 à 500 ft
< 800m
< 200 ft
Symboles :   Orages  Brouillard  Fortes neiges  Fortes précipitations  Vent > 20 kt






- Altitude de l'aérodrome : 10 ft


KNYG - Quantico MCAF /Turner field

DERNIER METAR :
  • 100756Z AUTO 21009KT 10SM BKN110 12/10 A2985 RMK AO2 SLP109 T01220100

METARs EXPIRÉS :
  • 100656Z AUTO 20012G20KT 10SM SCT110 12/09 A2984 RMK AO2 SLP106 T01220094
  • 100556Z AUTO 20010KT 9SM CLR 11/09 A2984 RMK AO2 SLP106 T01110089 10122 20089 58002

TAF TAF KNYG
Valide du 10 à 03h jusqu'au 11 à 03h UTC


1003/1103 20014G19KT 9999 BKN010 OVC120 QNH2984INS
BECMG 1005/1007 20009KT 9999 SCT015 QNH2985INS
FM101430 23010KT 4800 RA BR BKN009 OVC060 QNH2990INS
BECMG 1100/1102 07006KT 9999 NSW BKN055 OVC100 QNH3005INS T16/1021Z T07/1103Z



MET'MAP, la Météo Aéronautique d'un coup d'oeil ! - Copyright ORBIFLY Décembre 2007 - Disclaimer

ORBIFLY MET'MAP TEAM :

Programmation & Développement : Alexandra Zaïnal
Sur une idée originale de : Baudouin d'Aumeries
Assistance à la programmation : Marc-Olivier Méhu
Soutien technique & logistique : Manuel Goepfert

Contact : metmap@orbifly.com




SOURCES & CREDITS :

   NOAA       Earth
Advisory